Allegany, New York
Current Conditions -  °F | °C
As of 6:35 AM on Friday 24 Oct 2014 (Local Time) from KOLE Reporting Station
Broken Clouds Broken Clouds  
Wind Chill: 36°   Ceiling: 400
Heat Index: 36°   Visibility: 7mi
Dew Point: 36°   Wind: 0mph
Humidity: 100%   Direction: NA
Pressure: 30.01"   Gusts: NA
Location:  42.09°N, 78.49°W
Report Text: KOLE 241035Z AUTO 00000KT 7SM BKN004 02/02 A3001 RMK AO2
Loading
Personal Weather Stations






























Interactive Weather Map New forecast layout! Learn more

10-Day Weather Forecast

Advertisements
Track Severe Weather on mobile